createdAt,value
2022-12-26T00:00:48.891Z,5.15
2022-12-26T00:03:15.756Z,6.60
2022-12-26T00:05:45.014Z,4.60
2022-12-26T00:08:11.714Z,3.85
2022-12-26T00:10:38.464Z,4.90
2022-12-26T00:13:38.861Z,4.57
2022-12-26T00:15:51.952Z,4.72
2022-12-26T00:18:20.873Z,4.82
2022-12-26T00:20:49.859Z,5.90
2022-12-26T00:23:16.573Z,6.25
2022-12-26T00:25:43.328Z,6.18
2022-12-26T00:28:09.995Z,4.28
2022-12-26T00:30:38.265Z,6.72
2022-12-26T00:33:04.944Z,6.07
2022-12-26T00:35:31.627Z,6.45
2022-12-26T00:37:58.247Z,7.53
2022-12-26T00:40:29.618Z,5.72
2022-12-26T00:42:56.254Z,6.32
2022-12-26T00:45:22.968Z,6.97
2022-12-26T00:47:49.562Z,6.35
2022-12-26T00:50:18.780Z,4.72
2022-12-26T00:52:47.650Z,7.50
2022-12-26T00:55:14.346Z,7.78
2022-12-26T00:57:41.079Z,6.40
2022-12-26T01:00:08.350Z,5.82
2022-12-26T01:02:37.924Z,5.95
2022-12-26T01:05:09.094Z,6.53
2022-12-26T01:08:19.501Z,8.25
2022-12-26T01:10:26.288Z,6.13
2022-12-26T01:12:53.173Z,5.13
2022-12-26T01:15:22.306Z,7.07
2022-12-26T01:17:49.011Z,5.55
2022-12-26T01:20:15.656Z,6.03
2022-12-26T01:22:44.699Z,7.63
2022-12-26T01:25:12.104Z,8.30
2022-12-26T01:27:39.011Z,4.30
2022-12-26T01:30:06.568Z,6.65
2022-12-26T01:32:35.766Z,6.32
2022-12-26T01:35:02.526Z,6.18
2022-12-26T01:37:29.188Z,6.20
2022-12-26T01:39:58.015Z,6.13
2022-12-26T01:42:26.379Z,5.43
2022-12-26T01:44:56.565Z,8.88
2022-12-26T01:47:25.733Z,6.57
2022-12-26T01:49:55.166Z,6.72
2022-12-26T01:52:37.987Z,4.00
2022-12-26T01:55:08.541Z,7.05
2022-12-26T01:57:40.951Z,5.30
2022-12-26T02:00:08.589Z,4.15
2022-12-26T02:02:55.738Z,5.45
2022-12-26T02:05:34.447Z,6.70
2022-12-26T02:08:11.594Z,7.43
2022-12-26T02:10:56.774Z,4.28
2022-12-26T02:13:27.102Z,4.68
2022-12-26T02:15:53.803Z,6.07
2022-12-26T02:18:20.445Z,4.70
2022-12-26T02:21:25.372Z,5.65
2022-12-26T02:24:26.484Z,7.68
2022-12-26T02:27:19.293Z,7.30
2022-12-26T02:30:20.466Z,5.25
2022-12-26T02:33:08.516Z,7.68
2022-12-26T02:35:55.324Z,4.68
2022-12-26T02:38:51.558Z,5.65
2022-12-26T02:41:50.359Z,7.53
2022-12-26T02:44:47.812Z,5.50
2022-12-26T02:47:33.259Z,3.65
2022-12-26T02:50:18.570Z,5.05
2022-12-26T02:53:23.554Z,4.63
2022-12-26T02:56:13.226Z,5.35
2022-12-26T02:59:12.805Z,6.30
2022-12-26T03:02:04.675Z,6.90
2022-12-26T03:04:56.871Z,4.53
2022-12-26T03:07:48.482Z,4.97
2022-12-26T03:10:53.322Z,4.60
2022-12-26T03:16:16.622Z,5.53
2022-12-26T03:18:58.417Z,6.07
2022-12-26T03:21:31.735Z,8.50
2022-12-26T03:23:58.386Z,6.40
2022-12-26T03:26:42.039Z,10.02
2022-12-26T03:29:33.286Z,4.90
2022-12-26T03:32:05.621Z,7.78
2022-12-26T03:34:37.686Z,4.97
2022-12-26T03:37:47.784Z,4.70
2022-12-26T03:40:54.136Z,5.10
2022-12-26T03:44:20.621Z,5.03
2022-12-26T03:47:24.664Z,5.32
2022-12-26T03:50:15.219Z,9.60
2022-12-26T03:53:31.135Z,5.05
2022-12-26T03:56:30.934Z,6.72
2022-12-26T03:59:32.173Z,7.50
2022-12-26T04:02:23.455Z,7.03
2022-12-26T04:05:11.774Z,6.90
2022-12-26T04:08:05.486Z,10.77
2022-12-26T04:10:58.522Z,5.72
2022-12-26T04:13:50.887Z,6.88
2022-12-26T04:16:51.558Z,8.68
2022-12-26T04:19:47.185Z,7.40
2022-12-26T04:22:46.335Z,5.88
2022-12-26T04:25:49.724Z,4.90
2022-12-26T04:28:38.271Z,6.85
2022-12-26T04:31:34.134Z,5.50
2022-12-26T04:34:25.749Z,7.32
2022-12-26T04:37:22.512Z,4.97
2022-12-26T04:40:13.276Z,3.97
2022-12-26T04:43:01.696Z,4.65
2022-12-26T04:45:49.020Z,10.80
2022-12-26T04:48:36.699Z,6.50
2022-12-26T04:51:03.394Z,5.85
2022-12-26T04:53:30.051Z,7.25
2022-12-26T04:55:56.704Z,8.13
2022-12-26T04:58:24.323Z,4.93
2022-12-26T05:00:51.458Z,3.97
2022-12-26T05:03:36.697Z,3.90
2022-12-26T05:06:22.153Z,5.57
2022-12-26T05:09:07.806Z,4.35
2022-12-26T05:11:36.550Z,6.95
2022-12-26T05:14:03.291Z,5.22
2022-12-26T05:16:48.590Z,5.85
2022-12-26T05:19:35.666Z,7.53
2022-12-26T05:22:23.215Z,4.95
2022-12-26T05:25:09.216Z,4.45
2022-12-26T05:27:57.523Z,5.82
2022-12-26T05:30:26.938Z,5.90
2022-12-26T05:33:12.059Z,6.50
2022-12-26T05:35:39.560Z,7.40
2022-12-26T05:38:09.150Z,4.28
2022-12-26T05:40:36.306Z,6.35
2022-12-26T05:43:02.957Z,8.32
2022-12-26T05:45:29.712Z,6.55
2022-12-26T05:48:00.441Z,8.70
2022-12-26T05:50:27.492Z,5.20
2022-12-26T05:52:56.196Z,6.75
2022-12-26T05:55:24.406Z,5.18
2022-12-26T05:57:53.897Z,5.07
2022-12-26T06:00:22.892Z,5.88
2022-12-26T06:02:52.293Z,5.90
2022-12-26T06:05:21.817Z,6.55
2022-12-26T06:07:48.500Z,4.20
2022-12-26T06:10:17.524Z,7.47
2022-12-26T06:12:44.152Z,4.55
2022-12-26T06:15:12.799Z,7.95
2022-12-26T06:17:39.742Z,6.82
2022-12-26T06:20:07.233Z,6.40
2022-12-26T06:22:33.881Z,7.18
2022-12-26T06:25:03.195Z,9.38
2022-12-26T06:27:29.935Z,5.45
2022-12-26T06:29:59.118Z,5.07
2022-12-26T06:32:25.872Z,5.72
2022-12-26T06:34:55.063Z,7.10
2022-12-26T06:37:21.714Z,6.22
2022-12-26T06:39:48.346Z,5.88
2022-12-26T06:42:14.995Z,5.90
2022-12-26T06:44:43.890Z,5.68
2022-12-26T06:47:10.736Z,9.65
2022-12-26T06:49:39.802Z,5.28
2022-12-26T06:52:07.333Z,5.45
2022-12-26T06:54:36.749Z,6.50
2022-12-26T06:57:03.489Z,6.25
2022-12-26T06:59:30.129Z,8.13
2022-12-26T07:01:56.905Z,10.13
2022-12-26T07:04:23.796Z,6.72
2022-12-26T07:06:53.040Z,5.35
2022-12-26T07:09:20.088Z,8.32
2022-12-26T07:11:50.756Z,8.57
2022-12-26T07:14:17.534Z,9.00
2022-12-26T07:16:45.733Z,8.68
2022-12-26T07:19:16.291Z,8.88
2022-12-26T07:21:43.505Z,8.75
2022-12-26T07:24:23.287Z,8.88
2022-12-26T07:26:50.264Z,11.45
2022-12-26T07:29:17.170Z,7.65
2022-12-26T07:31:46.008Z,10.05
2022-12-26T07:34:12.927Z,9.85
2022-12-26T07:36:42.341Z,7.32
2022-12-26T07:39:09.560Z,7.70
2022-12-26T07:41:54.675Z,10.57
2022-12-26T07:44:21.348Z,8.13
2022-12-26T07:46:48.009Z,11.35
2022-12-26T07:49:15.184Z,8.57
2022-12-26T07:51:43.062Z,9.48
2022-12-26T07:54:11.681Z,9.48
2022-12-26T07:56:39.693Z,7.97
2022-12-26T07:59:09.011Z,5.20
2022-12-26T08:01:37.913Z,6.30
2022-12-26T08:04:04.899Z,4.72
2022-12-26T08:06:33.727Z,8.65
2022-12-26T08:09:00.475Z,5.95
2022-12-26T08:11:28.043Z,4.97
2022-12-26T08:13:54.725Z,3.30
2022-12-26T08:16:21.521Z,6.38
2022-12-26T08:18:48.313Z,4.80
2022-12-26T08:21:15.318Z,5.20
2022-12-26T08:23:42.085Z,3.75
2022-12-26T08:26:13.411Z,5.53
2022-12-26T08:28:40.079Z,4.28
2022-12-26T08:31:08.143Z,5.68
2022-12-26T08:33:35.470Z,3.08
2022-12-26T08:36:09.222Z,4.22
2022-12-26T08:38:36.640Z,5.32
2022-12-26T08:41:03.518Z,3.35
2022-12-26T08:44:24.479Z,2.65
2022-12-26T08:46:21.118Z,3.83
2022-12-26T08:48:49.006Z,4.45
2022-12-26T08:51:24.576Z,3.17
2022-12-26T08:53:52.934Z,4.90
2022-12-26T08:56:22.525Z,2.40
2022-12-26T08:58:49.498Z,2.90
2022-12-26T09:01:22.292Z,3.00
2022-12-26T09:03:56.804Z,2.13
2022-12-26T09:06:23.855Z,1.73
2022-12-26T09:08:51.112Z,2.67
2022-12-26T09:11:20.016Z,2.45
2022-12-26T09:13:47.157Z,1.95
2022-12-26T09:16:16.741Z,3.33
2022-12-26T09:18:44.883Z,2.92
2022-12-26T09:21:13.288Z,2.45
2022-12-26T09:23:43.689Z,2.47
2022-12-26T09:26:18.342Z,2.50
2022-12-26T09:28:48.102Z,1.73
2022-12-26T09:31:17.435Z,3.70
2022-12-26T09:33:44.981Z,2.25
2022-12-26T09:36:15.245Z,1.98
2022-12-26T09:38:43.811Z,2.58
2022-12-26T09:41:22.662Z,3.58
2022-12-26T09:44:05.746Z,3.20
2022-12-26T09:46:40.765Z,4.32
2022-12-26T09:49:16.671Z,3.13
2022-12-26T09:51:48.531Z,3.17
2022-12-26T09:54:32.742Z,1.30
2022-12-26T09:59:34.372Z,3.03
2022-12-26T10:02:03.634Z,2.53
2022-12-26T10:04:33.170Z,2.88
2022-12-26T10:07:24.024Z,3.80
2022-12-26T10:10:12.273Z,2.20
2022-12-26T10:12:50.216Z,4.50
2022-12-26T10:15:51.013Z,2.97
2022-12-26T10:18:51.614Z,2.72
2022-12-26T10:21:49.074Z,2.97
2022-12-26T10:24:22.166Z,2.95
2022-12-26T10:26:55.711Z,2.63
2022-12-26T10:29:35.134Z,4.95
2022-12-26T10:32:08.308Z,3.90
2022-12-26T10:34:46.217Z,3.03
2022-12-26T10:37:31.441Z,4.55
2022-12-26T10:40:02.684Z,6.32
2022-12-26T10:42:42.350Z,8.07
2022-12-26T10:45:22.935Z,3.92
2022-12-26T10:47:53.162Z,3.30
2022-12-26T10:50:27.431Z,5.25
2022-12-26T10:52:56.102Z,5.45
2022-12-26T10:55:31.620Z,5.03
2022-12-26T10:58:16.698Z,5.20
2022-12-26T11:00:46.226Z,7.70
2022-12-26T11:03:18.373Z,6.47
2022-12-26T11:08:43.023Z,5.75
2022-12-26T11:11:22.546Z,3.22
2022-12-26T11:14:02.146Z,7.10
2022-12-26T11:16:40.229Z,6.07
2022-12-26T11:19:06.972Z,3.95
2022-12-26T11:21:34.292Z,5.90
2022-12-26T11:24:09.958Z,4.68
2022-12-26T11:26:41.751Z,3.70
2022-12-26T11:29:24.093Z,4.13
2022-12-26T11:31:57.825Z,7.43
2022-12-26T11:34:47.701Z,5.20
2022-12-26T11:37:26.474Z,6.30
2022-12-26T11:39:54.367Z,6.45
2022-12-26T11:42:23.624Z,11.13
2022-12-26T11:44:52.639Z,6.07
2022-12-26T11:47:27.101Z,5.10
2022-12-26T11:50:08.217Z,5.65
2022-12-26T11:52:51.597Z,7.95
2022-12-26T11:55:33.554Z,7.00
2022-12-26T11:58:06.620Z,2.53
2022-12-26T12:00:35.375Z,4.22
2022-12-26T12:03:09.912Z,6.70
2022-12-26T12:05:42.452Z,6.55
2022-12-26T12:08:36.861Z,4.00
2022-12-26T12:13:47.405Z,6.47
2022-12-26T12:16:38.136Z,3.83
2022-12-26T12:19:34.633Z,3.92
2022-12-26T12:22:26.033Z,5.30
2022-12-26T12:25:11.871Z,3.38
2022-12-26T12:27:57.689Z,5.53
2022-12-26T12:30:28.320Z,3.25
2022-12-26T12:33:00.944Z,7.93
2022-12-26T12:35:36.955Z,3.07
2022-12-26T12:38:24.865Z,4.57
2022-12-26T12:41:17.447Z,6.75
2022-12-26T12:44:09.899Z,3.08
2022-12-26T12:46:51.596Z,4.50
2022-12-26T12:49:24.659Z,5.72
2022-12-26T12:52:32.872Z,3.60
2022-12-26T12:55:18.248Z,3.13
2022-12-26T12:58:16.197Z,2.47
2022-12-26T13:00:52.752Z,2.55
2022-12-26T13:03:34.624Z,4.90
2022-12-26T13:06:13.899Z,1.92
2022-12-26T13:08:43.244Z,3.92
2022-12-26T13:11:31.093Z,3.95
2022-12-26T13:14:00.909Z,3.95
2022-12-26T13:16:43.437Z,2.55
2022-12-26T13:19:27.470Z,3.20
2022-12-26T13:21:58.634Z,4.55
2022-12-26T13:24:31.260Z,4.07
2022-12-26T13:27:06.795Z,5.82
2022-12-26T13:29:44.979Z,3.53
2022-12-26T13:32:24.016Z,5.75
2022-12-26T13:34:53.268Z,5.38
2022-12-26T13:37:53.041Z,3.38
2022-12-26T13:40:22.380Z,4.88
2022-12-26T13:43:34.391Z,5.22
2022-12-26T13:46:03.457Z,4.32
2022-12-26T13:48:32.195Z,4.15
2022-12-26T13:51:02.761Z,4.65
2022-12-26T13:53:40.937Z,3.00
2022-12-26T13:56:22.374Z,6.15
2022-12-26T13:59:09.446Z,3.00
2022-12-26T14:01:59.097Z,3.50
2022-12-26T14:04:50.610Z,4.47
2022-12-26T14:07:39.853Z,5.97
2022-12-26T14:10:21.619Z,4.05
2022-12-26T14:13:28.042Z,4.57
2022-12-26T14:16:22.094Z,3.70
2022-12-26T14:19:13.333Z,5.72
2022-12-26T14:21:57.861Z,4.63
2022-12-26T14:24:43.705Z,7.43
2022-12-26T14:27:22.343Z,2.72
2022-12-26T14:29:55.815Z,4.45
2022-12-26T14:32:58.168Z,4.90
2022-12-26T14:36:05.925Z,4.22
2022-12-26T14:38:49.904Z,3.88
2022-12-26T14:41:38.988Z,4.15
2022-12-26T14:44:36.738Z,2.53
2022-12-26T14:47:05.564Z,4.55
2022-12-26T14:49:36.019Z,3.63
2022-12-26T14:52:24.996Z,4.28
2022-12-26T14:54:56.009Z,2.65
2022-12-26T14:57:49.423Z,4.28
2022-12-26T15:00:29.523Z,1.83
2022-12-26T15:02:59.307Z,3.28
2022-12-26T15:05:39.800Z,3.03
2022-12-26T15:08:25.319Z,4.93
2022-12-26T15:11:24.295Z,5.53
2022-12-26T15:14:26.792Z,2.22
2022-12-26T15:17:08.794Z,3.93
2022-12-26T15:19:54.311Z,2.78
2022-12-26T15:22:39.689Z,3.90
2022-12-26T15:25:21.487Z,1.80
2022-12-26T15:28:26.869Z,3.10
2022-12-26T15:30:56.453Z,2.05
2022-12-26T15:33:40.836Z,3.17
2022-12-26T15:36:17.016Z,3.08
2022-12-26T15:39:01.903Z,3.38
2022-12-26T15:42:07.712Z,2.10
2022-12-26T15:44:40.745Z,4.43
2022-12-26T15:47:22.627Z,1.10
2022-12-26T15:50:18.526Z,6.78
2022-12-26T15:53:11.003Z,3.90
2022-12-26T15:55:49.871Z,2.95
2022-12-26T15:58:37.768Z,2.30
2022-12-26T16:01:04.807Z,2.65
2022-12-26T16:03:51.116Z,2.80
2022-12-26T16:07:06.528Z,4.75
2022-12-26T16:09:46.524Z,6.60
2022-12-26T16:12:21.312Z,2.38
2022-12-26T16:14:48.913Z,1.35
2022-12-26T16:17:15.529Z,3.33
2022-12-26T16:19:47.335Z,2.00
2022-12-26T16:22:47.464Z,1.33
2022-12-26T16:25:21.503Z,5.28
2022-12-26T16:27:51.050Z,3.22
2022-12-26T16:30:30.170Z,3.85
2022-12-26T16:33:00.107Z,4.70
2022-12-26T16:35:34.348Z,5.20
2022-12-26T16:38:03.799Z,1.83
2022-12-26T16:40:34.400Z,2.17
2022-12-26T16:43:36.340Z,2.65
2022-12-26T16:46:06.637Z,3.17
2022-12-26T16:48:38.625Z,3.20
2022-12-26T16:51:08.318Z,2.00
2022-12-26T16:53:34.982Z,2.92
2022-12-26T16:56:26.737Z,2.05
2022-12-26T16:59:17.555Z,0.82
2022-12-26T17:01:56.391Z,2.67
2022-12-26T17:04:28.888Z,2.47
2022-12-26T17:07:17.106Z,2.88
2022-12-26T17:09:49.625Z,2.35
2022-12-26T17:12:27.479Z,2.13
2022-12-26T17:14:58.818Z,3.50
2022-12-26T17:17:32.486Z,1.65
2022-12-26T17:20:24.481Z,4.78
2022-12-26T17:22:54.880Z,1.88
2022-12-26T17:25:30.640Z,1.45
2022-12-26T17:28:17.753Z,1.75
2022-12-26T17:30:46.549Z,1.75
2022-12-26T17:33:17.832Z,2.08
2022-12-26T17:36:52.425Z,1.20
2022-12-26T17:38:45.723Z,1.98
2022-12-26T17:41:17.332Z,2.55
2022-12-26T17:43:44.831Z,2.92
2022-12-26T17:46:15.198Z,1.77
2022-12-26T17:48:42.941Z,1.35
2022-12-26T17:51:15.674Z,2.10
2022-12-26T17:53:46.737Z,1.83
2022-12-26T17:56:17.262Z,1.23
2022-12-26T17:58:44.011Z,1.90
2022-12-26T18:01:13.636Z,0.90
2022-12-26T18:03:42.875Z,1.20
2022-12-26T18:06:16.469Z,2.10
2022-12-26T18:08:44.182Z,1.10
2022-12-26T18:11:12.960Z,0.75
2022-12-26T18:13:40.499Z,2.75
2022-12-26T18:16:07.727Z,1.30
2022-12-26T18:18:39.959Z,0.73
2022-12-26T18:21:08.897Z,1.45
2022-12-26T18:23:36.005Z,1.60
2022-12-26T18:26:08.404Z,1.80
2022-12-26T18:28:35.559Z,3.63
2022-12-26T18:31:02.297Z,1.73
2022-12-26T18:33:29.025Z,2.50
2022-12-26T18:35:55.876Z,2.65
2022-12-26T18:38:24.784Z,2.70
2022-12-26T18:40:57.732Z,2.88
2022-12-26T18:43:24.461Z,2.20
2022-12-26T18:45:53.719Z,3.15
2022-12-26T18:48:22.947Z,3.42
2022-12-26T18:50:49.651Z,1.10
2022-12-26T18:53:16.612Z,1.48
2022-12-26T18:55:45.598Z,1.73
2022-12-26T18:58:13.737Z,1.55
2022-12-26T19:00:40.530Z,2.38
2022-12-26T19:03:09.382Z,3.78
2022-12-26T19:05:38.380Z,4.88
2022-12-26T19:08:05.187Z,1.05
2022-12-26T19:10:34.206Z,3.70
2022-12-26T19:13:05.842Z,5.43
2022-12-26T19:15:34.548Z,3.70
2022-12-26T19:18:01.880Z,2.38
2022-12-26T19:20:28.908Z,2.92
2022-12-26T19:22:56.209Z,3.25
2022-12-26T19:25:26.667Z,2.72
2022-12-26T19:27:54.108Z,3.95
2022-12-26T19:30:23.787Z,2.15
2022-12-26T19:32:50.939Z,6.05
2022-12-26T19:35:18.481Z,1.33
2022-12-26T19:37:45.473Z,1.63
2022-12-26T19:40:13.253Z,1.65
2022-12-26T19:42:40.018Z,3.40
2022-12-26T19:45:08.652Z,2.58
2022-12-26T19:47:35.794Z,4.00
2022-12-26T19:50:04.075Z,2.72
2022-12-26T19:52:30.817Z,3.15
2022-12-26T19:54:57.525Z,4.25
2022-12-26T19:57:26.657Z,3.20
2022-12-26T19:59:53.312Z,6.50
2022-12-26T20:02:20.305Z,4.40
2022-12-26T20:04:47.203Z,3.38
2022-12-26T20:07:16.296Z,3.22
2022-12-26T20:09:43.040Z,2.97
2022-12-26T20:12:09.775Z,3.08
2022-12-26T20:14:37.425Z,2.47
2022-12-26T20:17:09.380Z,2.75
2022-12-26T20:19:36.767Z,2.05
2022-12-26T20:22:07.086Z,3.05
2022-12-26T20:24:34.362Z,3.75
2022-12-26T20:27:02.011Z,1.20
2022-12-26T20:29:33.587Z,1.75
2022-12-26T20:32:00.360Z,4.55
2022-12-26T20:34:27.260Z,3.72
2022-12-26T20:36:56.355Z,1.50
2022-12-26T20:39:23.340Z,2.85
2022-12-26T20:41:50.043Z,2.85
2022-12-26T20:44:17.363Z,2.55
2022-12-26T20:46:44.970Z,2.47
2022-12-26T20:49:12.153Z,2.13
2022-12-26T20:51:41.175Z,3.03
2022-12-26T20:54:10.266Z,3.35
2022-12-26T20:56:37.698Z,3.13
2022-12-26T20:59:05.996Z,1.70
2022-12-26T21:01:33.160Z,2.58
2022-12-26T21:04:00.056Z,2.65
2022-12-26T21:06:34.804Z,4.07
2022-12-26T21:09:02.175Z,2.22
2022-12-26T21:11:38.121Z,2.63
2022-12-26T21:14:18.330Z,4.22
2022-12-26T21:16:48.729Z,4.22
2022-12-26T21:19:16.901Z,4.63
2022-12-26T21:21:45.939Z,4.03
2022-12-26T21:24:20.000Z,1.30
2022-12-26T21:26:47.577Z,2.90
2022-12-26T21:29:23.993Z,2.35
2022-12-26T21:31:51.158Z,4.53
2022-12-26T21:34:20.692Z,2.88
2022-12-26T21:37:06.622Z,5.25
2022-12-26T21:39:35.388Z,5.95
2022-12-26T21:42:04.792Z,4.60
2022-12-26T21:44:33.700Z,3.40
2022-12-26T21:47:00.414Z,4.18
2022-12-26T21:49:27.082Z,4.32
2022-12-26T21:51:53.973Z,3.33
2022-12-26T21:54:42.283Z,4.18
2022-12-26T21:57:14.919Z,1.83
2022-12-26T21:59:56.575Z,1.75
2022-12-26T22:02:50.966Z,2.72
2022-12-26T22:07:45.812Z,4.57
2022-12-26T22:10:31.576Z,4.22
2022-12-26T22:12:58.269Z,5.63
2022-12-26T22:15:45.960Z,4.20
2022-12-26T22:18:12.684Z,5.53
2022-12-26T22:20:45.801Z,1.88
2022-12-26T22:23:15.011Z,3.80
2022-12-26T22:25:41.704Z,3.22
2022-12-26T22:28:08.408Z,5.35
2022-12-26T22:30:35.126Z,2.80
2022-12-26T22:33:01.747Z,2.13
2022-12-26T22:35:28.464Z,5.80
2022-12-26T22:37:55.140Z,2.53
2022-12-26T22:40:21.949Z,2.85
2022-12-26T22:42:51.230Z,4.35
2022-12-26T22:45:20.047Z,2.50
2022-12-26T22:47:46.721Z,3.38
2022-12-26T22:50:16.894Z,2.08
2022-12-26T22:52:46.793Z,3.00
2022-12-26T22:55:13.962Z,3.25
2022-12-26T22:57:40.666Z,3.17
2022-12-26T23:00:15.074Z,2.78
2022-12-26T23:02:41.882Z,2.95
2022-12-26T23:05:13.522Z,3.92
2022-12-26T23:07:40.501Z,2.85
2022-12-26T23:10:08.730Z,5.38
2022-12-26T23:12:43.440Z,2.83
2022-12-26T23:15:13.460Z,5.45
2022-12-26T23:18:02.172Z,12.55
2022-12-26T23:20:53.877Z,4.60
2022-12-26T23:23:21.536Z,6.50
2022-12-26T23:25:48.272Z,4.57
2022-12-26T23:28:33.757Z,7.43
2022-12-26T23:31:03.259Z,5.22
2022-12-26T23:33:33.826Z,1.60
2022-12-26T23:36:00.756Z,4.93
2022-12-26T23:38:29.669Z,3.45
2022-12-26T23:40:58.901Z,7.25
2022-12-26T23:43:25.549Z,2.10
2022-12-26T23:45:52.174Z,1.65
2022-12-26T23:48:18.854Z,4.97
2022-12-26T23:50:45.515Z,2.60
2022-12-26T23:53:12.294Z,4.95
2022-12-26T23:55:42.068Z,2.17
2022-12-26T23:58:08.880Z,3.33
